Time;durP1;ratioP1;P1;durP2;ratioP2;P2;SDS_P1;SDS_P2;PMS_P1;PMS_P2;Temp;Humidity;BMP_temperature;BMP_pressure;BME280_temperature;BME280_humidity;BME280_pressure;Samples;Min_cycle;Max_cycle;Signal;HPM_P1;HPM_P2
2023/02/05 00:01:50;;;;;;;44.83;13.90;;;3.40;99.90;;;2.19;100.00;99311.69;5068774;28;20422;-73
2023/02/05 00:04:16;;;;;;;27.80;11.55;;;3.50;99.90;;;2.21;100.00;99301.94;5069069;28;20400;-73
2023/02/05 00:06:43;;;;;;;34.95;14.18;;;3.50;99.90;;;2.24;100.00;99304.25;5069112;28;20537;-73
2023/02/05 00:09:10;;;;;;;41.20;15.05;;;3.50;99.90;;;2.25;100.00;99306.72;5051208;28;20756;-73
2023/02/05 00:11:36;;;;;;;45.67;16.02;;;3.50;99.90;;;2.27;100.00;99307.38;5064857;28;21047;-73
2023/02/05 00:14:02;;;;;;;41.97;14.88;;;3.50;99.90;;;2.21;100.00;99300.13;5048824;28;20500;-73
2023/02/05 00:16:29;;;;;;;42.75;14.18;;;3.50;99.90;;;2.17;100.00;99303.22;5048920;28;20401;-73
2023/02/05 00:18:56;;;;;;;29.92;12.95;;;3.40;99.90;;;2.16;100.00;99298.97;5048951;28;20817;-74
2023/02/05 00:21:22;;;;;;;35.00;13.00;;;3.40;99.90;;;2.17;100.00;99293.59;5047386;28;20415;-73
2023/02/05 00:23:49;;;;;;;37.28;14.98;;;3.40;99.90;;;2.20;100.00;99295.06;5048840;28;20424;-73
2023/02/05 00:26:15;;;;;;;37.00;13.95;;;3.50;99.90;;;2.27;100.00;99294.31;5048802;28;20407;-73
2023/02/05 00:28:42;;;;;;;45.72;13.40;;;3.50;99.90;;;2.31;100.00;99290.44;5048936;28;20397;-73
2023/02/05 00:31:11;;;;;;;36.97;10.65;;;3.50;99.90;;;2.25;100.00;99287.59;5048632;28;20771;-73
2023/02/05 00:33:37;;;;;;;43.35;12.30;;;3.50;99.90;;;2.17;100.00;99277.09;5048449;28;20435;-73
2023/02/05 00:36:04;;;;;;;28.73;8.90;;;3.40;99.90;;;2.14;100.00;99275.59;5048746;28;20825;-73
2023/02/05 00:38:30;;;;;;;27.02;8.57;;;3.40;99.90;;;2.13;100.00;99278.34;5048702;28;20428;-74
2023/02/05 00:40:57;;;;;;;20.03;8.00;;;3.40;99.90;;;2.12;100.00;99269.69;5048813;28;20929;-73
2023/02/05 00:43:23;;;;;;;18.17;7.10;;;3.40;99.90;;;2.15;100.00;99276.41;5050085;28;20463;-73
2023/02/05 00:45:49;;;;;;;27.50;7.30;;;3.40;99.90;;;2.16;100.00;99278.06;5052474;28;20972;-73
2023/02/05 00:48:15;;;;;;;27.05;7.65;;;3.40;99.90;;;2.16;100.00;99284.09;5052485;28;20401;-73
2023/02/05 00:50:41;;;;;;;20.33;7.22;;;3.40;99.90;;;2.12;100.00;99290.59;5052458;28;20454;-73
2023/02/05 00:53:07;;;;;;;30.30;7.72;;;3.40;99.90;;;2.10;100.00;99289.94;5052272;28;20463;-73
2023/02/05 00:55:33;;;;;;;28.98;8.07;;;3.40;99.90;;;2.14;100.00;99290.44;5052326;28;20784;-73
2023/02/05 00:58:00;;;;;;;29.23;8.00;;;3.40;99.90;;;2.12;100.00;99289.75;5052328;28;20398;-73
2023/02/05 01:00:26;;;;;;;26.77;7.95;;;3.40;99.90;;;2.04;100.00;99293.13;5052327;28;20408;-73
2023/02/05 01:02:52;;;;;;;20.73;7.30;;;3.30;99.90;;;2.01;100.00;99285.59;5051809;28;20475;-73
2023/02/05 01:05:18;;;;;;;28.23;7.43;;;3.30;99.90;;;2.00;100.00;99278.75;5050907;28;20420;-73
2023/02/05 01:07:44;;;;;;;22.97;8.17;;;3.30;99.90;;;1.99;100.00;99274.47;5052392;28;20489;-73
2023/02/05 01:10:11;;;;;;;26.90;7.72;;;3.30;99.90;;;1.93;100.00;99275.09;5052228;28;20410;-73
2023/02/05 01:12:37;;;;;;;23.75;7.10;;;3.20;99.90;;;1.92;100.00;99279.50;5064131;28;20753;-73
2023/02/05 01:15:06;;;;;;;19.60;6.72;;;3.20;99.90;;;1.95;100.00;99283.59;5070651;28;20917;-73
2023/02/05 01:17:33;;;;;;;23.63;7.70;;;3.20;99.90;;;1.98;100.00;99279.84;5072091;28;20444;-74
2023/02/05 01:19:59;;;;;;;27.05;7.72;;;3.30;99.90;;;2.01;100.00;99276.94;5072046;28;20407;-73
2023/02/05 01:22:24;;;;;;;21.87;7.93;;;3.30;99.90;;;1.95;100.00;99267.94;5071680;28;20562;-73
2023/02/05 01:24:51;;;;;;;31.90;8.57;;;3.20;99.90;;;1.97;100.00;99272.97;5072007;28;20517;-74
2023/02/05 01:27:17;;;;;;;25.33;8.68;;;3.20;99.90;;;1.89;100.00;99264.09;5071799;28;20387;-74
2023/02/05 01:29:43;;;;;;;31.40;9.80;;;3.20;99.90;;;1.90;100.00;99259.72;5071821;28;20402;-74
2023/02/05 01:32:10;;;;;;;35.15;13.77;;;3.20;99.90;;;1.94;100.00;99259.28;5071546;28;20392;-74
2023/02/05 01:34:36;;;;;;;51.23;15.70;;;3.20;99.90;;;1.95;100.00;99263.50;5071721;28;20409;-74
2023/02/05 01:37:02;;;;;;;46.95;13.35;;;3.20;99.90;;;2.00;100.00;99257.03;5071592;28;20404;-74
2023/02/05 01:39:28;;;;;;;36.78;12.43;;;3.20;99.90;;;1.94;100.00;99258.44;5071568;28;20476;-74
2023/02/05 01:41:54;;;;;;;32.97;11.32;;;3.20;99.90;;;1.82;100.00;99252.63;5071354;28;20896;-74
2023/02/05 01:44:23;;;;;;;40.92;11.18;;;3.10;99.90;;;1.80;100.00;99248.53;5071403;28;20498;-74
2023/02/05 01:46:51;;;;;;;25.13;9.63;;;3.10;99.90;;;1.76;100.00;99250.63;5071440;28;20430;-74
2023/02/05 01:49:23;;;;;;;35.50;10.02;;;3.00;99.90;;;1.76;100.00;99245.38;5071483;28;20838;-73
2023/02/05 01:51:53;;;;;;;35.05;10.23;;;3.10;99.90;;;1.77;100.00;99233.97;5071151;28;20915;-73
2023/02/05 01:54:25;;;;;;;32.72;9.43;;;3.10;99.90;;;1.73;100.00;99231.84;5070967;28;20425;-74
2023/02/05 01:56:54;;;;;;;26.83;9.18;;;3.00;99.90;;;1.70;100.00;99226.91;5071387;28;20429;-74
2023/02/05 01:59:25;;;;;;;34.83;10.30;;;3.00;99.90;;;1.68;100.00;99234.88;5071273;28;20384;-74
2023/02/05 02:01:51;;;;;;;42.25;10.55;;;3.00;99.90;;;1.69;100.00;99236.53;5070914;28;20419;-73
2023/02/05 02:04:33;;;;;;;40.67;9.88;;;2.90;99.90;;;1.61;100.00;99226.00;5071069;28;20471;-74
2023/02/05 02:07:00;;;;;;;29.73;9.45;;;2.90;99.90;;;1.54;100.00;99219.72;5071114;28;20447;-74
2023/02/05 02:09:26;;;;;;;26.88;8.80;;;2.80;99.90;;;1.57;100.00;99216.03;5071164;28;20413;-73
2023/02/05 02:11:53;;;;;;;22.63;8.27;;;2.80;99.90;;;1.61;100.00;99219.97;5064467;28;20542;-74
2023/02/05 02:14:20;;;;;;;32.60;9.38;;;2.90;99.90;;;1.63;100.00;99221.47;5050985;28;20496;-74
2023/02/05 02:16:46;;;;;;;39.60;9.18;;;2.90;99.90;;;1.63;100.00;99216.25;5051018;28;20408;-73
2023/02/05 02:19:25;;;;;;;36.38;9.82;;;3.00;99.90;;;1.65;100.00;99203.03;5050874;28;20398;-73
2023/02/05 02:22:26;;;;;;;34.80;10.30;;;2.90;99.90;;;1.62;100.00;99204.16;5050486;28;20440;-73
2023/02/05 02:25:36;;;;;;;34.05;10.63;;;2.90;99.90;;;1.60;100.00;99200.88;5037535;28;20448;-73
2023/02/05 02:28:08;;;;;;;24.80;9.37;;;2.90;99.90;;;1.63;100.00;99194.53;5050709;28;20428;-74
2023/02/05 02:30:41;;;;;;;42.45;12.07;;;2.90;99.90;;;1.69;100.00;99205.19;5050751;28;20405;-74
2023/02/05 02:33:18;;;;;;;36.88;12.98;;;3.00;99.90;;;1.72;100.00;99199.69;5050314;28;21015;-74
2023/02/05 02:35:51;;;;;;;29.40;11.00;;;3.00;99.90;;;1.76;100.00;99198.41;5050512;28;20445;-74
2023/02/05 02:38:26;;;;;;;34.70;11.05;;;3.00;99.90;;;1.82;100.00;99199.59;5050503;28;20760;-73
2023/02/05 02:40:56;;;;;;;34.00;10.27;;;3.10;99.90;;;1.85;100.00;99202.72;5050544;28;20809;-74
2023/02/05 02:43:30;;;;;;;35.72;10.02;;;3.10;99.90;;;1.89;100.00;99187.56;5050310;28;20508;-74
2023/02/05 02:46:02;;;;;;;23.77;9.02;;;3.20;99.90;;;1.91;100.00;99196.06;5050327;28;20401;-74
2023/02/05 02:48:32;;;;;;;31.05;8.90;;;3.20;99.90;;;1.93;100.00;99191.53;5050418;28;20441;-74
2023/02/05 02:51:00;;;;;;;29.80;9.05;;;3.20;99.90;;;1.95;100.00;99194.81;5050243;28;20444;-74
2023/02/05 02:53:34;;;;;;;28.88;9.32;;;3.20;99.90;;;1.95;100.00;99184.38;5050096;28;20447;-73
2023/02/05 02:56:03;;;;;;;30.70;9.70;;;3.20;99.90;;;1.94;100.00;99167.88;5050129;28;20456;-74
2023/02/05 02:58:36;;;;;;;32.45;10.13;;;3.20;99.90;;;1.93;100.00;99173.25;5050174;28;20401;-73
2023/02/05 03:01:05;;;;;;;26.27;9.17;;;3.20;99.90;;;1.93;100.00;99170.63;5050145;28;20751;-74
2023/02/05 03:03:34;;;;;;;26.95;9.18;;;3.20;99.90;;;1.93;100.00;99168.03;5049984;28;20581;-74
2023/02/05 03:06:05;;;;;;;30.00;10.07;;;3.20;99.90;;;1.94;100.00;99174.88;5049420;28;20527;-74
2023/02/05 03:08:40;;;;;;;29.02;9.40;;;3.20;99.90;;;1.93;100.00;99173.25;5049909;28;20444;-74
2023/02/05 03:11:13;;;;;;;28.13;9.40;;;3.20;99.90;;;1.93;100.00;99173.25;5049784;28;20944;-74
2023/02/05 03:13:41;;;;;;;33.22;10.75;;;3.20;99.90;;;1.92;100.00;99174.22;5049745;28;20417;-74
2023/02/05 03:16:07;;;;;;;32.05;10.43;;;3.20;99.90;;;1.90;100.00;99173.53;5049727;28;20436;-74
2023/02/05 03:18:33;;;;;;;27.27;8.97;;;3.20;99.90;;;1.90;100.00;99183.97;5049721;28;20452;-74
2023/02/05 03:21:04;;;;;;;31.60;9.57;;;3.20;99.90;;;1.91;100.00;99177.78;5049700;28;20409;-74
2023/02/05 03:23:31;;;;;;;33.07;10.70;;;3.20;99.90;;;1.90;100.00;99169.13;5049461;28;20409;-74
2023/02/05 03:25:57;;;;;;;26.35;9.70;;;3.20;99.90;;;1.91;100.00;99170.78;5049421;28;20878;-74
2023/02/05 03:28:23;;;;;;;27.35;9.70;;;3.20;99.90;;;1.95;100.00;99172.09;5049696;28;20409;-74
2023/02/05 03:31:00;;;;;;;26.48;8.85;;;3.20;99.90;;;2.00;100.00;99176.06;5049661;28;20446;-74
2023/02/05 03:33:49;;;;;;;40.63;12.20;;;3.20;99.90;;;2.01;100.00;99167.25;5049488;28;20423;-74
2023/02/05 03:36:24;;;;;;;32.13;11.30;;;3.30;99.90;;;1.97;100.00;99168.53;5049606;28;20976;-74
2023/02/05 03:39:08;;;;;;;31.42;11.15;;;3.20;99.90;;;1.94;100.00;99162.66;5049527;28;20398;-74
2023/02/05 03:41:55;;;;;;;44.10;13.38;;;3.20;99.90;;;1.93;100.00;99150.56;5048986;28;20951;-74
2023/02/05 03:44:40;;;;;;;38.05;12.90;;;3.20;99.90;;;1.87;100.00;99145.13;5049427;28;20420;-74
2023/02/05 03:47:20;;;;;;;39.10;14.73;;;3.10;99.90;;;1.82;100.00;99150.78;5049534;28;20409;-74
2023/02/05 03:49:56;;;;;;;43.67;16.00;;;3.10;99.90;;;1.79;100.00;99147.69;5049449;28;20894;-74
2023/02/05 03:52:30;;;;;;;36.67;14.65;;;3.10;99.90;;;1.73;100.00;99143.88;5049202;28;20421;-74
2023/02/05 03:55:06;;;;;;;44.45;15.63;;;3.00;99.90;;;1.67;100.00;99152.31;5049011;28;20458;-74
2023/02/05 03:57:39;;;;;;;48.63;15.63;;;3.00;99.90;;;1.63;100.00;99151.00;5049220;28;20444;-74
2023/02/05 04:00:07;;;;;;;37.78;15.23;;;2.90;99.90;;;1.54;100.00;99152.72;5049331;28;20475;-74
2023/02/05 04:02:35;;;;;;;48.75;16.42;;;2.80;99.90;;;1.48;100.00;99148.09;5048727;28;20474;-74
2023/02/05 04:05:01;;;;;;;53.60;17.37;;;2.80;99.90;;;1.37;100.00;99137.88;5049060;28;20451;-74
2023/02/05 04:07:27;;;;;;;53.07;17.73;;;2.70;99.90;;;1.36;100.00;99125.78;5049161;28;20405;-74
2023/02/05 04:09:53;;;;;;;54.13;16.65;;;2.60;99.90;;;1.21;100.00;99119.47;5049135;28;20740;-74
2023/02/05 04:12:19;;;;;;;51.30;16.00;;;2.50;99.90;;;1.05;100.00;99125.34;5058508;28;20392;-74
2023/02/05 04:14:45;;;;;;;47.63;16.17;;;2.40;99.90;;;1.01;100.00;99123.19;5069062;28;20785;-74
2023/02/05 04:17:11;;;;;;;51.70;16.55;;;2.30;99.90;;;1.01;100.00;99120.56;5071634;28;20411;-74
2023/02/05 04:19:40;;;;;;;53.45;16.83;;;2.30;99.90;;;0.97;100.00;99127.06;5073176;28;20911;-74
2023/02/05 04:22:06;;;;;;;48.17;15.65;;;2.30;99.90;;;0.85;100.00;99123.00;5054782;28;20495;-73
2023/02/05 04:24:32;;;;;;;48.45;16.40;;;2.20;99.90;;;0.82;100.00;99126.75;5072885;28;20766;-74
2023/02/05 04:26:58;;;;;;;40.55;14.52;;;2.20;99.90;;;0.72;100.00;99118.97;5072970;28;20403;-74
2023/02/05 04:29:24;;;;;;;59.03;16.93;;;2.10;99.90;;;0.78;100.00;99130.59;5072959;28;20403;-74
2023/02/05 04:31:49;;;;;;;43.30;15.15;;;2.10;99.90;;;0.67;100.00;99126.41;5072660;28;20400;-74
2023/02/05 04:34:15;;;;;;;53.40;16.90;;;2.10;99.90;;;0.64;100.00;99123.28;5072780;28;20404;-74
2023/02/05 04:36:44;;;;;;;45.13;16.08;;;2.00;99.90;;;0.58;100.00;99134.28;5072736;28;20962;-74
2023/02/05 04:39:10;;;;;;;63.42;17.95;;;2.00;99.90;;;0.55;100.00;99126.75;5072791;28;20430;-74
2023/02/05 04:41:36;;;;;;;42.28;15.60;;;1.90;99.90;;;0.51;100.00;99125.41;5072563;28;20847;-74
2023/02/05 04:44:02;;;;;;;54.50;15.82;;;1.90;99.90;;;0.46;100.00;99120.59;5072619;28;20464;-74
2023/02/05 04:46:28;;;;;;;68.17;18.17;;;1.80;99.90;;;0.49;100.00;99122.94;5072751;28;20504;-74
2023/02/05 04:48:54;;;;;;;55.88;16.40;;;1.90;99.90;;;0.44;100.00;99132.16;5072717;28;20498;-74
2023/02/05 04:51:20;;;;;;;43.33;14.73;;;1.80;99.90;;;0.42;100.00;99129.69;5072563;28;20404;-74
2023/02/05 04:53:47;;;;;;;44.83;16.23;;;1.80;99.90;;;0.43;100.00;99138.31;5072469;28;20476;-74
2023/02/05 04:56:15;;;;;;;58.20;17.83;;;1.80;99.90;;;0.46;100.00;99133.63;5084059;22;20502;-72
2023/02/05 04:58:42;;;;;;;63.85;17.63;;;1.80;99.90;;;0.52;100.00;99122.66;5069805;28;20451;-71
2023/02/05 05:01:13;;;;;;;55.30;17.50;;;1.90;99.90;;;0.54;100.00;99131.13;5070568;28;20414;-71
2023/02/05 05:03:40;;;;;;;45.97;16.48;;;1.90;99.90;;;0.61;100.00;99131.38;5079451;28;20410;-71
2023/02/05 05:06:06;;;;;;;50.28;17.92;;;2.00;99.90;;;0.68;100.00;99122.81;5062154;28;20403;-71
2023/02/05 05:08:32;;;;;;;49.30;17.33;;;2.00;99.90;;;0.72;100.00;99124.19;5056688;28;20436;-71
2023/02/05 05:11:05;;;;;;;48.20;17.17;;;2.00;99.90;;;0.79;100.00;99134.84;5059384;28;20421;-69
2023/02/05 05:13:32;;;;;;;50.60;16.73;;;2.20;99.90;;;0.85;100.00;99136.88;5052293;28;20425;-69
2023/02/05 05:15:58;;;;;;;51.85;17.60;;;2.20;99.90;;;0.90;100.00;99134.66;5051602;28;20417;-69
2023/02/05 05:18:23;;;;;;;42.25;16.55;;;2.20;99.90;;;0.95;100.00;99152.47;5045524;28;20411;-69
2023/02/05 05:20:49;;;;;;;36.77;15.40;;;2.30;99.90;;;1.00;100.00;99142.41;5046276;28;20449;-69
2023/02/05 05:23:15;;;;;;;42.10;15.38;;;2.30;99.90;;;1.04;100.00;99151.59;5040557;28;20417;-69
2023/02/05 05:25:42;;;;;;;48.55;16.73;;;2.40;99.90;;;1.07;100.00;99143.44;5021309;28;20411;-69
2023/02/05 05:28:10;;;;;;;44.45;16.10;;;2.40;99.90;;;1.13;100.00;99150.66;5047460;28;20424;-70
2023/02/05 05:30:37;;;;;;;48.10;16.43;;;2.40;99.90;;;1.16;100.00;99142.56;5047294;28;20439;-69
2023/02/05 05:33:03;;;;;;;38.72;15.18;;;2.50;99.90;;;1.19;100.00;99155.31;5063834;28;20400;-67
2023/02/05 05:35:29;;;;;;;48.55;15.65;;;2.50;99.90;;;1.23;100.00;99143.59;5041594;28;20475;-70
2023/02/05 05:37:55;;;;;;;45.67;16.05;;;2.50;99.90;;;1.26;100.00;99147.72;5046682;28;20413;-70
2023/02/05 05:45:54;;;;;;;47.45;17.10;;;2.60;99.90;;;1.28;100.00;99145.78;5057749;28;20469;-70
2023/02/05 05:48:20;;;;;;;53.72;17.35;;;2.60;99.90;;;1.26;100.00;99143.31;5047119;28;20420;-70
2023/02/05 05:50:46;;;;;;;45.88;16.08;;;2.60;99.90;;;1.23;100.00;99140.19;5058718;28;20417;-71
2023/02/05 05:53:12;;;;;;;39.47;15.67;;;2.60;99.90;;;1.21;100.00;99142.09;5055238;28;20400;-71
2023/02/05 05:55:38;;;;;;;46.08;16.48;;;2.50;99.90;;;1.24;100.00;99134.81;5051914;28;20444;-71
2023/02/05 05:58:04;;;;;;;58.88;18.40;;;2.50;99.90;;;1.28;100.00;99136.16;5058537;28;21102;-70
2023/02/05 06:00:31;;;;;;;56.25;17.55;;;2.60;99.90;;;1.25;100.00;99123.44;5041033;28;20661;-70
2023/02/05 06:02:57;;;;;;;49.85;16.52;;;2.50;99.90;;;1.24;100.00;99121.78;5050936;28;20412;-70
2023/02/05 06:05:23;;;;;;;50.05;17.13;;;2.50;99.90;;;1.26;100.00;99122.47;5049695;28;20448;-71
2023/02/05 06:07:49;;;;;;;44.77;16.60;;;2.50;99.90;;;1.27;100.00;99125.88;5050964;28;20524;-70
2023/02/05 06:10:15;;;;;;;52.65;17.33;;;2.60;99.90;;;1.26;100.00;99127.69;5046101;28;20924;-71
2023/02/05 06:12:41;;;;;;;38.05;14.32;;;2.60;99.90;;;1.26;100.00;99132.91;5045248;28;20429;-71
2023/02/05 06:15:08;;;;;;;74.82;18.98;;;2.60;99.90;;;1.28;100.00;99135.34;5053194;28;20433;-71
2023/02/05 06:17:35;;;;;;;62.55;18.52;;;2.60;99.90;;;1.21;100.00;99142.09;5046099;28;20403;-71
2023/02/05 06:20:01;;;;;;;58.90;19.20;;;2.50;99.90;;;1.19;100.00;99131.84;5039226;28;20739;-70
2023/02/05 06:22:27;;;;;;;57.42;17.70;;;2.50;99.90;;;1.10;100.00;99130.94;5038340;28;20784;-71
2023/02/05 06:24:53;;;;;;;44.27;16.23;;;2.40;99.90;;;1.11;100.00;99129.97;5045824;28;20428;-71
2023/02/05 06:27:19;;;;;;;54.60;16.60;;;2.40;99.90;;;1.15;100.00;99133.91;5033959;28;20863;-71
2023/02/05 06:29:45;;;;;;;45.35;15.82;;;2.40;99.90;;;1.20;100.00;99143.94;5044363;28;20491;-69
2023/02/05 06:32:10;;;;;;;58.77;19.33;;;2.50;99.90;;;1.25;100.00;99141.69;5052035;28;20439;-71
2023/02/05 06:34:38;;;;;;;65.45;19.75;;;2.50;99.90;;;1.21;100.00;99134.28;5055228;28;20401;-71
2023/02/05 06:37:04;;;;;;;52.03;16.33;;;2.50;99.90;;;1.24;100.00;99136.59;5033563;28;20422;-71
2023/02/05 06:39:30;;;;;;;43.67;16.13;;;2.50;99.90;;;1.29;100.00;99135.19;5043527;28;20415;-71
2023/02/05 06:41:56;;;;;;;39.63;15.33;;;2.60;99.90;;;1.34;100.00;99135.56;5039287;28;20409;-71
2023/02/05 06:44:23;;;;;;;47.42;15.73;;;2.60;99.90;;;1.39;100.00;99133.31;5036907;28;20935;-71
2023/02/05 06:46:49;;;;;;;41.97;15.20;;;2.70;99.90;;;1.42;100.00;99133.03;5063025;28;20495;-71
2023/02/05 06:49:15;;;;;;;51.42;16.48;;;2.70;99.90;;;1.45;100.00;99140.56;5054618;28;20881;-71
2023/02/05 06:51:42;;;;;;;68.40;17.70;;;2.70;99.90;;;1.47;100.00;99138.63;5039387;28;20478;-71
2023/02/05 06:54:08;;;;;;;62.05;17.20;;;2.70;99.90;;;1.45;100.00;99143.16;5036798;28;20403;-70
2023/02/05 06:56:34;;;;;;;41.35;16.55;;;2.70;99.90;;;1.43;100.00;99137.25;5044257;28;20463;-71
2023/02/05 06:58:59;;;;;;;39.85;14.90;;;2.70;99.90;;;1.47;100.00;99141.22;5045165;28;20739;-72
2023/02/05 07:01:26;;;;;;;49.00;16.25;;;2.70;99.90;;;1.51;100.00;99139.94;5042424;28;20462;-70
2023/02/05 07:03:54;;;;;;;37.33;14.93;;;2.80;99.90;;;1.55;100.00;99140.47;5037535;28;20898;-70
2023/02/05 07:06:22;;;;;;;41.88;14.88;;;2.80;99.90;;;1.58;100.00;99148.00;5043898;28;20464;-71
2023/02/05 07:08:49;;;;;;;45.63;16.63;;;2.90;99.90;;;1.61;100.00;99139.06;5045580;28;20410;-71
2023/02/05 07:11:16;;;;;;;54.95;17.83;;;2.90;99.90;;;1.61;100.00;99147.69;5049590;28;20962;-71
2023/02/05 07:13:42;;;;;;;40.10;15.27;;;2.90;99.90;;;1.62;100.00;99151.13;5046978;28;20394;-72
2023/02/05 07:16:08;;;;;;;46.17;15.73;;;2.90;99.90;;;1.63;100.00;99156.22;5049071;28;20467;-72
2023/02/05 07:18:34;;;;;;;42.88;15.07;;;2.90;99.90;;;1.66;100.00;99155.06;5049437;28;20429;-72
2023/02/05 07:21:05;;;;;;;49.05;15.25;;;2.90;99.90;;;1.66;100.00;99158.50;5050201;28;20429;-72
2023/02/05 07:23:31;;;;;;;53.73;15.87;;;2.90;99.90;;;1.68;100.00;99153.97;5048132;28;20595;-72
2023/02/05 07:26:04;;;;;;;38.75;14.48;;;3.00;99.90;;;1.71;100.00;99153.66;5050748;28;20496;-72
2023/02/05 07:28:30;;;;;;;52.88;16.27;;;3.00;99.90;;;1.71;100.00;99152.84;5041736;28;20487;-72
2023/02/05 07:31:03;;;;;;;48.10;14.82;;;3.00;99.90;;;1.68;100.00;99151.34;5049434;28;20412;-72
2023/02/05 07:33:29;;;;;;;41.70;14.80;;;2.90;99.90;;;1.63;100.00;99134.50;5041107;28;20412;-71
2023/02/05 07:35:55;;;;;;;49.25;15.05;;;2.90;99.90;;;1.68;100.00;99133.06;5039416;28;20420;-71
2023/02/05 07:38:21;;;;;;;48.03;15.85;;;2.90;99.90;;;1.69;100.00;99136.50;5047507;28;20401;-72
2023/02/05 07:40:46;;;;;;;51.50;15.43;;;2.90;99.90;;;1.76;100.00;99124.47;5048858;28;20549;-73
2023/02/05 07:43:14;;;;;;;44.38;14.75;;;3.00;99.90;;;1.78;100.00;99125.97;5048465;28;20458;-73
2023/02/05 07:45:40;;;;;;;38.67;13.55;;;3.00;99.90;;;1.82;100.00;99129.91;5047786;28;20826;-73
2023/02/05 07:48:05;;;;;;;42.17;14.30;;;3.10;99.90;;;1.85;100.00;99113.94;5046612;28;20410;-76
2023/02/05 07:50:31;;;;;;;35.58;12.85;;;3.10;99.90;;;1.91;100.00;99113.34;5046554;28;20413;-73
2023/02/05 07:52:57;;;;;;;44.47;15.23;;;3.20;99.90;;;1.92;100.00;99112.38;5045203;28;20486;-75
2023/02/05 07:55:23;;;;;;;46.40;15.90;;;3.20;99.90;;;1.97;100.00;99116.28;5047175;28;20450;-73
2023/02/05 07:57:49;;;;;;;55.55;16.10;;;3.20;99.90;;;1.99;100.00;99120.41;5047470;28;20405;-71
2023/02/05 08:00:17;;;;;;;40.90;15.03;;;3.20;99.90;;;2.02;100.00;99116.66;5046515;28;20437;-70
2023/02/05 08:02:43;;;;;;;41.60;14.25;;;3.30;99.90;;;2.07;100.00;99117.03;5044900;28;20429;-72
2023/02/05 08:05:09;;;;;;;53.15;15.80;;;3.30;99.90;;;2.07;100.00;99119.63;5047016;28;20424;-71
2023/02/05 08:07:36;;;;;;;44.63;14.65;;;3.30;99.90;;;2.12;100.00;99112.97;5037556;28;20428;-71
2023/02/05 08:10:03;;;;;;;53.97;16.25;;;3.30;99.90;;;2.15;100.00;99114.44;5047007;28;20400;-70
2023/02/05 08:12:29;;;;;;;57.78;17.42;;;3.40;99.90;;;2.18;100.00;99117.56;5039777;28;20497;-70
2023/02/05 08:14:55;;;;;;;48.20;16.33;;;3.40;99.90;;;2.25;100.00;99115.16;5037441;28;20421;-70
2023/02/05 08:17:22;;;;;;;48.05;15.25;;;3.40;99.90;;;2.29;100.00;99127.75;5040294;28;20738;-71
2023/02/05 08:19:50;;;;;;;46.65;15.38;;;3.50;99.90;;;2.32;100.00;99121.41;5038437;28;20429;-72
2023/02/05 08:22:15;;;;;;;47.63;15.20;;;3.50;99.90;;;2.33;100.00;99116.00;5040283;28;20406;-71
2023/02/05 08:24:41;;;;;;;42.65;15.90;;;3.50;99.90;;;2.37;100.00;99123.53;5045505;28;20432;-71
2023/02/05 08:27:07;;;;;;;40.70;15.47;;;3.50;99.90;;;2.38;100.00;99115.56;5045134;28;20775;-71
2023/02/05 08:29:33;;;;;;;51.72;16.42;;;3.60;99.90;;;2.38;100.00;99110.31;5048059;28;20569;-71
2023/02/05 08:31:59;;;;;;;52.75;17.23;;;3.60;99.90;;;2.40;100.00;99118.84;5048004;28;20497;-72
2023/02/05 08:34:27;;;;;;;49.20;16.17;;;3.60;99.90;;;2.44;100.00;99119.31;5043243;28;20487;-71
2023/02/05 08:36:53;;;;;;;57.83;17.52;;;3.60;99.90;;;2.45;100.00;99110.50;5047994;28;20920;-70
2023/02/05 08:39:19;;;;;;;53.55;16.30;;;3.60;99.90;;;2.48;100.00;99110.22;5044841;28;20410;-70
2023/02/05 08:41:45;;;;;;;50.97;17.00;;;3.60;99.90;;;2.53;100.00;99108.75;5044111;28;20408;-70
2023/02/05 08:44:10;;;;;;;49.67;16.83;;;3.70;99.90;;;2.57;100.00;99109.25;5032812;28;20715;-70
2023/02/05 08:46:39;;;;;;;45.65;15.52;;;3.80;99.90;;;2.61;100.00;99110.59;5055426;28;20905;-70
2023/02/05 08:49:05;;;;;;;45.30;15.32;;;3.80;99.90;;;2.65;100.00;99112.72;5048179;28;20959;-70
2023/02/05 08:51:34;;;;;;;50.88;16.08;;;3.80;99.90;;;2.68;100.00;99099.34;5026990;28;20432;-70
2023/02/05 08:54:00;;;;;;;57.35;16.52;;;3.90;99.90;;;2.71;100.00;99092.94;5049476;28;20530;-71
2023/02/05 08:56:26;;;;;;;44.05;16.20;;;3.90;99.90;;;2.75;100.00;99090.84;5057482;28;20504;-69
2023/02/05 08:58:52;;;;;;;45.20;14.93;;;3.90;99.90;;;2.77;100.00;99081.88;5042381;28;20405;-71
2023/02/05 09:01:18;;;;;;;51.00;15.15;;;3.90;99.90;;;2.80;100.00;99078.94;5049449;28;20816;-72
2023/02/05 09:03:44;;;;;;;42.73;13.90;;;4.00;99.90;;;2.83;100.00;99073.38;5033382;28;20421;-72
2023/02/05 09:06:13;;;;;;;38.63;13.45;;;4.00;99.90;;;2.89;100.00;99071.94;5050356;28;20464;-71
2023/02/05 09:08:40;;;;;;;39.38;13.73;;;4.10;99.90;;;2.93;100.00;99063.59;5051978;28;20406;-71
2023/02/05 09:11:07;;;;;;;49.20;15.20;;;4.10;99.90;;;2.95;100.00;99064.25;5048292;28;20413;-71
2023/02/05 09:13:33;;;;;;;47.75;15.23;;;4.10;99.90;;;2.97;100.00;99064.91;5044484;28;20390;-69
2023/02/05 09:15:59;;;;;;;41.70;14.00;;;4.10;99.90;;;2.99;100.00;99062.97;5052330;28;20466;-69
2023/02/05 09:18:26;;;;;;;41.22;13.25;;;4.20;99.90;;;3.02;100.00;99061.81;5051636;28;20405;-71
2023/02/05 09:20:53;;;;;;;34.88;12.57;;;4.20;99.90;;;3.09;100.00;99058.38;5051622;28;20402;-71
2023/02/05 09:23:19;;;;;;;46.50;13.00;;;4.20;99.90;;;2.99;100.00;99062.13;5053831;28;20413;-71
2023/02/05 09:25:47;;;;;;;61.25;15.07;;;4.10;99.90;;;2.90;100.00;99050.03;5053050;28;20424;-71
2023/02/05 09:28:14;;;;;;;60.13;15.48;;;4.10;99.90;;;2.78;100.00;99053.94;5053303;28;20437;-72
2023/02/05 09:30:42;;;;;;;59.70;15.05;;;4.00;99.90;;;2.71;100.00;99048.50;5034131;28;21005;-73
2023/02/05 09:33:09;;;;;;;56.28;14.88;;;3.90;99.90;;;2.50;100.00;99042.91;5051329;28;20451;-73
2023/02/05 09:35:35;;;;;;;57.95;17.15;;;3.70;99.90;;;2.31;100.00;99026.53;5051665;28;20405;-73
2023/02/05 09:38:02;;;;;;;59.85;17.17;;;3.50;99.90;;;2.25;100.00;99039.41;5051490;28;20405;-73
2023/02/05 09:40:34;;;;;;;63.10;18.27;;;3.40;99.90;;;2.10;100.00;99027.91;5051390;28;20882;-72
2023/02/05 09:43:19;;;;;;;66.45;18.85;;;3.30;99.90;;;2.03;100.00;99021.69;5051272;28;20819;-73
2023/02/05 09:45:56;;;;;;;62.17;16.50;;;3.20;99.90;;;2.12;100.00;99024.16;5051449;28;20438;-73
2023/02/05 09:48:48;;;;;;;52.38;17.45;;;3.30;99.90;;;2.19;100.00;99027.78;5051377;28;20886;-73
2023/02/05 09:51:19;;;;;;;66.20;19.83;;;3.40;99.90;;;2.20;100.00;99018.97;5052951;28;20447;-73
2023/02/05 09:53:52;;;;;;;55.17;17.00;;;3.40;99.90;;;2.31;100.00;99020.47;5033370;28;20935;-73
2023/02/05 09:56:19;;;;;;;68.20;19.02;;;3.50;99.90;;;2.32;100.00;99017.72;5051157;28;20459;-73
2023/02/05 09:58:50;;;;;;;46.10;16.30;;;3.50;99.90;;;2.38;100.00;99020.66;5051205;28;21114;-72
2023/02/05 10:01:39;;;;;;;60.45;18.98;;;3.60;99.90;;;2.39;100.00;99011.84;5033104;28;20429;-73
2023/02/05 10:04:07;;;;;;;74.80;17.95;;;3.60;99.90;;;2.43;100.00;99015.75;5050877;28;20917;-73
2023/02/05 10:07:16;;;;;;;59.15;17.73;;;3.60;99.90;;;2.44;100.00;99012.19;5051043;28;20431;-74
2023/02/05 10:10:15;;;;;;;59.42;17.63;;;3.70;99.90;;;2.43;100.00;99013.97;5050849;28;20435;-72
2023/02/05 10:13:08;;;;;;;59.15;16.63;;;3.60;99.90;;;2.44;100.00;99007.78;5063106;28;21073;-73
2023/02/05 10:15:53;;;;;;;60.33;17.38;;;3.60;99.90;;;2.40;100.00;99006.47;5065654;28;20562;-74
2023/02/05 10:18:28;;;;;;;53.03;16.55;;;3.60;99.90;;;2.47;100.00;99004.84;5047038;28;20900;-74
2023/02/05 10:21:04;;;;;;;54.37;16.67;;;3.60;99.90;;;2.47;100.00;98999.63;5046799;28;20448;-73
2023/02/05 10:24:01;;;;;;;63.73;16.73;;;3.70;99.90;;;2.57;100.00;98996.84;5030269;28;20424;-73
2023/02/05 10:26:33;;;;;;;57.47;16.87;;;3.80;99.90;;;2.59;100.00;99000.13;5047610;28;21051;-73